Time;durP1;ratioP1;P1;durP2;ratioP2;P2;SDS_P1;SDS_P2;PMS_P1;PMS_P2;Temp;Humidity;BMP_temperature;BMP_pressure;BME280_temperature;BME280_humidity;BME280_pressure;Samples;Min_cycle;Max_cycle;Signal;HPM_P1;HPM_P2
2021/08/11 00:00:08;;;;;;;14.32;7.70;;;;;;;28.07;42.35;99940.75;5109191;28;20028;-22
2021/08/11 00:02:33;;;;;;;10.23;7.63;;;;;;;27.81;43.47;99955.53;5109732;28;20483;-22
2021/08/11 00:04:59;;;;;;;9.52;7.15;;;;;;;27.21;42.96;99951.34;5109442;28;20024;-23
2021/08/11 00:07:24;;;;;;;9.82;7.00;;;;;;;26.97;41.68;99941.03;5109556;28;20548;-22
2021/08/11 00:09:49;;;;;;;9.27;6.70;;;;;;;27.16;43.17;99937.84;5109612;28;20116;-22
2021/08/11 00:12:15;;;;;;;8.90;7.18;;;;;;;27.30;41.29;99943.91;5109209;28;20043;-22
2021/08/11 00:14:40;;;;;;;10.82;7.43;;;;;;;27.19;44.38;99937.97;5109368;28;20479;-23
2021/08/11 00:17:06;;;;;;;8.82;6.78;;;;;;;27.12;42.88;99945.13;5109173;28;20395;-23
2021/08/11 00:19:31;;;;;;;8.35;6.30;;;;;;;27.04;44.01;99924.91;5109121;28;20132;-23
2021/08/11 00:21:57;;;;;;;9.70;6.30;;;;;;;27.14;44.53;99940.91;5108970;28;20042;-23
2021/08/11 00:24:22;;;;;;;16.58;6.38;;;;;;;27.08;43.28;99947.72;5108568;28;20029;-23
2021/08/11 00:26:48;;;;;;;8.35;5.85;;;;;;;26.99;44.85;99930.53;5105641;28;20036;-23
2021/08/11 00:29:13;;;;;;;7.47;5.53;;;;;;;26.81;45.74;99943.56;5109060;28;20072;-23
2021/08/11 00:31:39;;;;;;;7.80;6.25;;;;;;;26.79;42.35;99934.88;5108981;28;20475;-22
2021/08/11 00:34:04;;;;;;;9.60;6.00;;;;;;;26.83;43.62;99955.78;5108514;28;20020;-23
2021/08/11 00:36:29;;;;;;;8.85;5.60;;;;;;;26.85;44.53;99956.25;5108754;28;20039;-22
2021/08/11 00:38:55;;;;;;;7.05;5.72;;;;;;;26.92;44.85;99952.19;5109148;28;20391;-23
2021/08/11 00:41:20;;;;;;;7.43;5.70;;;;;;;26.71;45.16;99947.47;5108992;28;20035;-23
2021/08/11 00:43:46;;;;;;;6.72;5.07;;;;;;;26.77;44.57;99948.09;5108773;28;20020;-23
2021/08/11 00:46:11;;;;;;;7.80;5.90;;;;;;;26.90;43.97;99951.72;5108360;28;20027;-23
2021/08/11 00:48:37;;;;;;;7.60;5.85;;;;;;;26.74;44.50;99948.75;5108870;28;20028;-23
2021/08/11 00:51:03;;;;;;;13.88;5.97;;;;;;;26.76;44.58;99954.69;5109180;28;20081;-23
2021/08/11 00:53:28;;;;;;;14.80;5.82;;;;;;;26.29;44.24;99952.75;5108335;28;20368;-23
2021/08/11 00:55:55;;;;;;;13.80;5.72;;;;;;;26.70;44.82;99948.59;5090282;28;20468;-23
2021/08/11 00:58:20;;;;;;;9.45;6.22;;;;;;;26.49;46.05;99947.72;5089064;28;20665;-23
2021/08/11 01:00:48;;;;;;;7.05;5.70;;;;;;;26.26;46.09;99943.28;5108507;28;21135;-23
2021/08/11 01:03:23;;;;;;;8.68;6.55;;;;;;;26.15;46.19;99938.50;5090568;28;20023;-23
2021/08/11 01:05:49;;;;;;;9.70;6.07;;;;;;;26.22;44.76;99934.16;5108051;28;20445;-22
2021/08/11 01:08:15;;;;;;;13.23;6.07;;;;;;;26.41;44.69;99941.16;5107915;28;20483;-22
2021/08/11 01:10:41;;;;;;;9.45;6.53;;;;;;;26.48;44.42;99940.63;5090088;28;20062;-23
2021/08/11 01:13:07;;;;;;;8.43;6.13;;;;;;;26.42;45.20;99927.16;5108229;28;20123;-23
2021/08/11 01:15:33;;;;;;;10.80;6.22;;;;;;;26.49;45.84;99942.25;5108218;28;20788;-23
2021/08/11 01:17:58;;;;;;;10.70;6.25;;;;;;;26.31;45.90;99939.56;5108067;28;20030;-23
2021/08/11 01:20:24;;;;;;;9.43;6.22;;;;;;;26.40;45.34;99934.88;5107584;28;20028;-23
2021/08/11 01:22:54;;;;;;;8.00;6.25;;;;;;;26.51;46.08;99929.03;5108005;28;20031;-23
2021/08/11 01:25:51;;;;;;;8.77;6.55;;;;;;;26.56;45.63;99934.31;5090361;28;20038;-23
2021/08/11 01:28:49;;;;;;;9.95;5.75;;;;;;;26.64;45.65;99938.97;5062208;28;20039;-23
2021/08/11 01:31:19;;;;;;;10.23;5.90;;;;;;;26.73;44.83;99934.25;5098446;28;20483;-22
2021/08/11 01:33:50;;;;;;;9.15;6.75;;;;;;;26.69;45.60;99941.53;5108241;28;20050;-23
2021/08/11 01:36:49;;;;;;;11.20;6.00;;;;;;;26.70;45.71;99934.13;5089746;28;20092;-23
2021/08/11 01:39:16;;;;;;;10.75;6.53;;;;;;;26.63;45.72;99931.91;5107500;28;20472;-23
2021/08/11 01:41:45;;;;;;;8.30;5.60;;;;;;;26.31;46.21;99919.63;5089449;28;20027;-23
2021/08/11 01:44:10;;;;;;;10.50;6.32;;;;;;;26.40;45.49;99918.47;5089240;28;20031;-23
2021/08/11 01:46:38;;;;;;;7.85;6.40;;;;;;;26.71;45.50;99919.31;5108145;28;20039;-22
2021/08/11 01:49:07;;;;;;;9.20;6.30;;;;;;;26.75;44.96;99912.84;5073003;28;20031;-23
2021/08/11 01:51:33;;;;;;;7.35;6.10;;;;;;;26.57;45.61;99919.53;5089945;28;20084;-23
2021/08/11 01:53:59;;;;;;;9.00;5.93;;;;;;;26.38;45.97;99915.28;5107526;28;20035;-23
2021/08/11 01:56:25;;;;;;;10.10;7.00;;;;;;;26.46;46.44;99922.63;5072371;28;20039;-23
2021/08/11 01:58:50;;;;;;;8.85;6.75;;;;;;;26.46;46.30;99928.09;5088935;28;20067;-23
2021/08/11 02:01:16;;;;;;;9.70;6.93;;;;;;;26.31;46.60;99919.63;5072595;28;20020;-23
2021/08/11 02:03:42;;;;;;;11.60;7.05;;;;;;;26.63;45.08;99910.03;5089192;28;20457;-23
2021/08/11 02:06:08;;;;;;;12.05;7.80;;;;;;;26.69;45.15;99914.19;5089110;28;20024;-23
2021/08/11 02:08:33;;;;;;;10.35;7.50;;;;;;;26.50;45.56;99911.03;5089255;28;20035;-22
2021/08/11 02:10:59;;;;;;;12.13;8.32;;;;;;;26.15;46.24;99902.97;5092786;28;20493;-23
2021/08/11 02:13:25;;;;;;;12.02;7.18;;;;;;;26.12;46.22;99917.31;5111884;28;20502;-23
2021/08/11 02:15:51;;;;;;;10.50;6.93;;;;;;;26.24;45.58;99914.69;5111931;28;20036;-23
2021/08/11 02:18:16;;;;;;;11.05;7.72;;;;;;;26.38;46.24;99906.28;5111344;28;20034;-22
2021/08/11 02:20:42;;;;;;;11.25;7.50;;;;;;;26.26;46.21;99913.22;5111722;28;20023;-23
2021/08/11 02:23:09;;;;;;;10.27;7.68;;;;;;;26.32;45.61;99913.84;5111635;28;20039;-23
2021/08/11 02:25:34;;;;;;;9.57;7.63;;;;;;;26.33;46.04;99912.72;5111663;28;20063;-23
2021/08/11 02:28:06;;;;;;;13.52;7.80;;;;;;;26.43;45.59;99939.69;5093433;28;20858;-23
2021/08/11 02:30:58;;;;;;;12.18;7.68;;;;;;;26.40;45.57;99918.47;5111587;28;20145;-22
2021/08/11 02:33:35;;;;;;;14.52;8.60;;;;;;;26.41;45.20;99931.00;5093805;28;20035;-23
2021/08/11 02:36:02;;;;;;;;;;;;;;;26.31;45.82;99927.84;5111467;28;20034;-23
2021/08/11 02:38:29;;;;;;;13.13;8.13;;;;;;;26.33;46.48;99917.38;5110957;28;19912;-22
2021/08/11 02:41:20;;;;;;;16.23;8.15;;;;;;;26.31;46.23;99922.38;5111221;28;20020;-23
2021/08/11 02:43:57;;;;;;;12.57;8.00;;;;;;;26.39;45.83;99914.13;5082908;28;20819;-23
2021/08/11 02:46:24;;;;;;;11.10;7.82;;;;;;;26.29;45.76;99905.50;5076281;28;20456;-23
2021/08/11 02:49:01;;;;;;;14.10;8.70;;;;;;;26.02;46.46;99897.38;5092814;28;20031;-23
2021/08/11 02:51:27;;;;;;;14.15;7.57;;;;;;;26.04;46.21;99902.53;5111077;28;20261;-23
2021/08/11 02:53:53;;;;;;;12.93;8.63;;;;;;;26.24;46.27;99910.03;5110835;28;20114;-23
2021/08/11 02:56:19;;;;;;;14.40;8.70;;;;;;;26.18;45.95;99910.53;5075561;28;20111;-22
2021/08/11 02:58:44;;;;;;;19.63;8.65;;;;;;;26.13;46.48;99913.44;5092308;28;20059;-23
2021/08/11 03:01:10;;;;;;;17.50;8.95;;;;;;;26.45;45.85;99915.53;5075681;28;20034;-23
2021/08/11 03:03:35;;;;;;;17.75;8.60;;;;;;;26.57;45.28;99903.94;5092356;28;20501;-23
2021/08/11 03:06:01;;;;;;;15.60;8.32;;;;;;;26.46;45.28;99908.97;5110783;28;20048;-23
2021/08/11 03:08:27;;;;;;;14.30;8.40;;;;;;;25.90;46.99;99919.13;5092309;28;20471;-23
2021/08/11 03:10:53;;;;;;;12.63;7.90;;;;;;;25.94;46.57;99911.88;5092371;28;20030;-23
2021/08/11 03:13:18;;;;;;;12.43;8.27;;;;;;;25.99;46.47;99917.19;5110439;28;20098;-23
2021/08/11 03:15:44;;;;;;;25.40;8.90;;;;;;;26.03;46.18;99912.69;5110432;28;20062;-23
2021/08/11 03:18:10;;;;;;;15.80;8.65;;;;;;;25.99;46.39;99919.91;5091993;28;20031;-23
2021/08/11 03:20:37;;;;;;;13.82;8.60;;;;;;;25.96;47.13;99936.94;5110172;28;20344;-23
2021/08/11 03:23:02;;;;;;;10.13;7.15;;;;;;;25.85;47.28;99932.94;5075690;28;20047;-23
2021/08/11 03:25:28;;;;;;;17.63;9.60;;;;;;;25.70;47.91;99944.34;5110549;28;20039;-23
2021/08/11 03:27:53;;;;;;;19.90;8.88;;;;;;;25.82;46.81;99947.22;5110292;28;20038;-23
2021/08/11 03:30:19;;;;;;;22.85;8.85;;;;;;;25.87;46.85;99947.09;5110171;28;20108;-22
2021/08/11 03:32:44;;;;;;;17.63;9.05;;;;;;;25.82;47.81;99953.50;5110423;28;20036;-23
2021/08/11 03:35:10;;;;;;;16.33;8.20;;;;;;;25.45;48.15;99954.97;5110117;28;20028;-22
2021/08/11 03:37:35;;;;;;;29.52;9.32;;;;;;;25.57;47.93;99946.94;5090510;28;20399;-23
2021/08/11 03:40:01;;;;;;;25.77;9.10;;;;;;;25.55;47.88;99954.66;5109870;28;20043;-23
2021/08/11 03:42:26;;;;;;;21.70;9.30;;;;;;;25.57;47.61;99946.94;5109955;28;20028;-23
2021/08/11 03:44:52;;;;;;;18.50;7.97;;;;;;;25.52;47.80;99938.94;5109943;28;20035;-23
2021/08/11 03:47:17;;;;;;;16.23;8.70;;;;;;;25.39;48.12;99951.59;5109843;28;20042;-23
2021/08/11 03:49:45;;;;;;;17.13;7.53;;;;;;;25.17;48.52;99938.06;5109744;28;20028;-23
2021/08/11 03:52:11;;;;;;;16.40;8.25;;;;;;;25.01;48.77;99929.56;5109668;28;20039;-23
2021/08/11 03:54:37;;;;;;;16.30;7.68;;;;;;;25.43;47.59;99946.31;5109590;28;20062;-22
2021/08/11 03:57:02;;;;;;;21.90;8.18;;;;;;;25.56;47.50;99953.53;5109237;28;20035;-22
2021/08/11 03:59:28;;;;;;;20.73;8.15;;;;;;;25.69;46.87;99950.97;5109702;28;20411;-22
2021/08/11 04:01:54;;;;;;;35.33;9.20;;;;;;;25.41;47.36;99960.28;5109876;28;20052;-23
2021/08/11 04:04:20;;;;;;;16.38;8.32;;;;;;;25.40;47.16;99953.22;5109345;28;20819;-23
2021/08/11 04:06:45;;;;;;;13.63;8.55;;;;;;;25.16;48.58;99952.84;5109447;28;20030;-22
2021/08/11 04:09:11;;;;;;;15.40;8.82;;;;;;;25.14;49.18;99972.25;5109583;28;20043;-23
2021/08/11 04:11:36;;;;;;;11.40;8.52;;;;;;;24.90;49.42;99950.06;5109717;28;20032;-23
2021/08/11 04:14:01;;;;;;;15.50;7.43;;;;;;;25.02;49.12;99964.69;5109245;28;20384;-23
2021/08/11 04:16:27;;;;;;;14.25;7.95;;;;;;;24.79;50.23;99965.94;5109295;28;20043;-23
2021/08/11 04:18:52;;;;;;;16.75;8.50;;;;;;;24.86;50.28;99958.88;5109347;28;20036;-23
2021/08/11 04:21:18;;;;;;;16.35;8.07;;;;;;;25.03;49.83;99971.78;5109245;28;20504;-23
2021/08/11 04:23:43;;;;;;;10.48;8.05;;;;;;;25.44;48.40;99964.31;5108905;28;20020;-23
2021/08/11 04:26:09;;;;;;;16.58;8.10;;;;;;;25.66;47.93;99971.50;5108786;28;20495;-23
2021/08/11 04:28:34;;;;;;;14.77;8.05;;;;;;;25.46;48.31;99970.25;5108967;28;20398;-23
2021/08/11 04:31:00;;;;;;;15.68;8.40;;;;;;;25.34;48.90;99964.63;5090430;28;20514;-22
2021/08/11 04:33:25;;;;;;;10.20;8.45;;;;;;;25.44;48.82;99970.56;5108053;28;20023;-23
2021/08/11 04:35:51;;;;;;;12.48;8.65;;;;;;;25.66;48.58;99961.41;5109116;28;20050;-23
2021/08/11 04:38:17;;;;;;;13.30;8.75;;;;;;;25.99;48.09;99969.09;5108561;28;20030;-22
2021/08/11 04:40:43;;;;;;;18.38;9.70;;;;;;;25.90;47.78;99965.56;5108809;28;20035;-23
2021/08/11 04:43:09;;;;;;;11.60;9.43;;;;;;;25.75;48.66;99957.88;5108729;28;20027;-22
2021/08/11 04:45:38;;;;;;;11.00;8.02;;;;;;;26.04;46.58;99955.25;5108913;28;20065;-23
2021/08/11 04:48:04;;;;;;;13.32;8.63;;;;;;;26.08;47.93;99949.16;5108587;28;20027;-23
2021/08/11 04:50:29;;;;;;;15.18;8.40;;;;;;;26.40;46.89;99973.16;5108601;28;20415;-22
2021/08/11 04:52:55;;;;;;;13.75;8.10;;;;;;;26.48;45.97;99979.72;5108703;28;20031;-23
2021/08/11 04:55:20;;;;;;;19.48;8.50;;;;;;;26.55;46.29;99963.59;5108525;28;20034;-23
2021/08/11 04:57:46;;;;;;;13.35;8.32;;;;;;;26.51;46.59;99961.84;5108074;28;20043;-22
2021/08/11 05:00:12;;;;;;;12.40;9.00;;;;;;;26.28;47.89;99975.78;5107883;28;20043;-23
2021/08/11 05:02:37;;;;;;;12.48;8.13;;;;;;;26.25;47.30;99973.69;5108092;28;20425;-23
2021/08/11 05:05:05;;;;;;;10.95;8.27;;;;;;;26.50;46.09;99968.44;5108025;28;20032;-23
2021/08/11 05:07:30;;;;;;;13.57;8.60;;;;;;;26.67;45.89;99975.81;5108309;28;20382;-23
2021/08/11 05:09:56;;;;;;;12.90;7.78;;;;;;;26.59;46.20;99963.78;5108326;28;20410;-23
2021/08/11 05:12:21;;;;;;;12.30;8.55;;;;;;;26.93;46.56;99970.19;5108028;28;20028;-23
2021/08/11 05:14:47;;;;;;;18.40;9.43;;;;;;;27.21;45.46;99973.22;5108253;28;20430;-22
2021/08/11 05:17:12;;;;;;;18.77;9.70;;;;;;;27.45;45.41;99975.34;5108135;28;20035;-23
2021/08/11 05:19:38;;;;;;;18.38;9.48;;;;;;;27.38;46.08;99967.66;5108154;28;20031;-23
2021/08/11 05:22:03;;;;;;;10.68;8.13;;;;;;;27.53;45.08;99962.72;5107754;28;20389;-23
2021/08/11 05:24:29;;;;;;;11.85;8.77;;;;;;;27.50;45.73;99979.81;5089980;28;20100;-23
2021/08/11 05:26:54;;;;;;;11.05;7.72;;;;;;;27.58;44.89;99984.41;5107899;28;20494;-23
2021/08/11 05:29:20;;;;;;;10.07;8.07;;;;;;;27.51;44.35;99971.25;5107850;28;20031;-23
2021/08/11 05:31:46;;;;;;;9.63;7.68;;;;;;;27.39;45.33;99982.94;5108031;28;20019;-23
2021/08/11 05:34:11;;;;;;;10.27;8.02;;;;;;;27.40;45.35;99987.31;5107570;28;20128;-22
2021/08/11 05:36:37;;;;;;;10.55;7.35;;;;;;;27.79;44.06;100004.38;5108009;28;20024;-22
2021/08/11 05:39:03;;;;;;;11.85;7.97;;;;;;;27.41;44.60;99990.84;5107923;28;20035;-23
2021/08/11 05:41:28;;;;;;;10.90;7.80;;;;;;;27.42;44.41;99989.69;5107802;28;20027;-23
2021/08/11 05:43:54;;;;;;;9.45;7.38;;;;;;;27.37;46.47;99981.69;5107610;28;20395;-23
2021/08/11 05:46:19;;;;;;;12.23;7.82;;;;;;;27.59;44.77;99980.56;5107435;28;20027;-23
2021/08/11 05:48:45;;;;;;;10.57;6.93;;;;;;;27.79;43.27;99965.22;5107599;28;20032;-23
2021/08/11 05:51:12;;;;;;;9.27;7.20;;;;;;;27.93;42.78;99995.91;5107691;28;20031;-23
2021/08/11 05:53:38;;;;;;;10.30;7.80;;;;;;;27.91;43.15;100006.41;5107701;28;20038;-23
2021/08/11 05:56:04;;;;;;;10.18;7.78;;;;;;;28.18;43.03;99993.22;5107307;28;20028;-22
2021/08/11 05:58:29;;;;;;;11.95;8.15;;;;;;;28.24;43.43;99989.13;5107167;28;20054;-23
2021/08/11 06:00:55;;;;;;;9.80;7.35;;;;;;;28.37;43.04;100000.91;5107475;28;20081;-22
2021/08/11 06:03:20;;;;;;;11.82;7.70;;;;;;;28.37;42.90;100001.72;5107528;28;20462;-23
2021/08/11 06:05:46;;;;;;;10.90;6.97;;;;;;;28.35;42.80;100006.72;5107500;28;20032;-23
2021/08/11 06:08:11;;;;;;;11.52;7.13;;;;;;;28.49;42.67;100009.16;5107284;28;20766;-23
2021/08/11 06:10:37;;;;;;;15.70;7.25;;;;;;;28.75;42.29;100006.13;5107679;28;20081;-23
2021/08/11 06:13:03;;;;;;;9.55;7.63;;;;;;;28.36;43.14;100005.63;5107274;28;20032;-23
2021/08/11 06:15:28;;;;;;;12.15;8.25;;;;;;;28.54;42.62;100005.41;5107338;28;20024;-22
2021/08/11 06:17:54;;;;;;;11.65;8.00;;;;;;;28.68;42.21;100003.16;5107184;28;20108;-23
2021/08/11 06:20:20;;;;;;;10.43;7.20;;;;;;;28.80;42.76;99992.16;5106854;28;20024;-23
2021/08/11 06:22:46;;;;;;;9.70;7.85;;;;;;;28.92;40.59;99998.81;5107096;28;20031;-23
2021/08/11 06:25:12;;;;;;;9.32;7.45;;;;;;;28.60;41.18;100002.09;5106980;28;20034;-23
2021/08/11 06:27:37;;;;;;;12.32;7.25;;;;;;;28.69;42.45;99996.53;5107437;28;20041;-23
2021/08/11 06:30:04;;;;;;;10.73;7.75;;;;;;;28.71;40.88;99998.91;5107319;28;20107;-23
2021/08/11 06:32:30;;;;;;;13.27;7.60;;;;;;;28.98;40.31;100002.91;5107120;28;20028;-23
2021/08/11 06:34:55;;;;;;;10.07;7.00;;;;;;;28.53;40.06;99987.38;5107042;28;20034;-23
2021/08/11 06:37:21;;;;;;;8.63;7.22;;;;;;;28.73;41.01;100002.09;5107551;28;20526;-23
2021/08/11 06:39:46;;;;;;;11.65;7.38;;;;;;;29.07;39.53;100003.59;5107164;28;20028;-23
2021/08/11 06:42:12;;;;;;;10.85;8.18;;;;;;;29.10;39.70;99999.38;5107118;28;20036;-22
2021/08/11 06:44:37;;;;;;;9.25;7.80;;;;;;;28.76;40.41;100006.94;5107238;28;20031;-23
2021/08/11 06:47:03;;;;;;;13.02;8.13;;;;;;;28.79;40.78;100001.56;5107129;28;20462;-23
2021/08/11 06:49:28;;;;;;;10.35;7.55;;;;;;;28.89;40.25;100004.97;5107523;28;20088;-22
2021/08/11 06:51:54;;;;;;;11.05;8.00;;;;;;;29.17;39.79;100005.88;5107170;28;20105;-23
2021/08/11 06:54:19;;;;;;;11.10;8.52;;;;;;;29.33;40.25;100007.94;5107211;28;20426;-22
2021/08/11 06:56:45;;;;;;;10.90;7.50;;;;;;;29.53;39.53;100001.47;5109729;28;20031;-23
2021/08/11 06:59:10;;;;;;;10.07;8.65;;;;;;;29.16;37.43;99990.56;5110818;28;20055;-23
2021/08/11 07:01:35;;;;;;;11.50;8.32;;;;;;;29.31;37.33;99988.25;5110756;28;20053;-23
2021/08/11 07:04:01;;;;;;;14.32;8.70;;;;;;;29.44;38.28;99992.56;5110312;28;20430;-22
2021/08/11 07:06:27;;;;;;;11.90;8.52;;;;;;;29.60;38.32;99984.38;5110400;28;20031;-22
2021/08/11 07:08:52;;;;;;;12.40;8.10;;;;;;;29.56;38.58;99977.97;5110756;28;20039;-23
2021/08/11 07:11:18;;;;;;;10.45;8.15;;;;;;;30.16;37.70;99980.78;5110457;28;20032;-23
2021/08/11 07:13:44;;;;;;;11.05;8.07;;;;;;;30.63;35.97;99996.56;5110461;28;20039;-23
2021/08/11 07:16:09;;;;;;;10.90;8.27;;;;;;;30.32;37.28;99989.91;5110468;28;20027;-23
2021/08/11 07:18:35;;;;;;;13.70;9.25;;;;;;;29.99;37.09;99979.19;5110700;28;20886;-23
2021/08/11 07:21:01;;;;;;;14.98;8.90;;;;;;;30.17;37.13;99991.44;5092197;28;20118;-22
2021/08/11 07:23:27;;;;;;;13.05;9.35;;;;;;;30.10;37.44;99988.53;5110315;28;20027;-23
2021/08/11 07:25:52;;;;;;;10.25;8.98;;;;;;;30.23;36.14;99983.75;5092050;28;20100;-22
2021/08/11 07:28:18;;;;;;;13.00;8.32;;;;;;;30.21;35.72;99986.84;5110513;28;20600;-22
2021/08/11 07:30:45;;;;;;;12.38;8.52;;;;;;;30.34;36.69;99968.34;5092027;28;20023;-22
2021/08/11 07:33:12;;;;;;;11.90;8.75;;;;;;;30.57;36.01;99987.00;5109952;28;20035;-23
2021/08/11 07:35:38;;;;;;;11.55;8.80;;;;;;;30.48;35.64;99989.91;5110013;28;20040;-23
2021/08/11 07:38:04;;;;;;;13.18;8.45;;;;;;;30.28;35.56;99977.19;5109839;28;20081;-22
2021/08/11 07:40:29;;;;;;;12.88;8.10;;;;;;;30.67;36.52;99986.44;5109894;28;20032;-23
2021/08/11 07:42:55;;;;;;;13.82;8.40;;;;;;;30.81;35.94;99981.28;5109955;28;20023;-23
2021/08/11 07:45:21;;;;;;;11.57;7.80;;;;;;;31.04;36.31;99988.91;5110019;28;20034;-22
2021/08/11 07:47:48;;;;;;;11.88;8.40;;;;;;;31.47;34.85;99983.53;5109840;28;20024;-23
2021/08/11 07:50:14;;;;;;;11.30;8.48;;;;;;;31.56;35.07;99986.88;5109569;28;20032;-22
2021/08/11 07:52:39;;;;;;;11.27;8.10;;;;;;;31.43;35.37;99983.44;5109752;28;20039;-23
2021/08/11 07:55:06;;;;;;;10.65;8.18;;;;;;;31.57;34.36;99982.97;5109622;28;20023;-23
2021/08/11 07:57:31;;;;;;;11.00;8.25;;;;;;;31.54;34.37;99967.94;5109234;28;20044;-23
2021/08/11 07:59:57;;;;;;;10.88;8.25;;;;;;;32.10;34.58;99988.72;5109560;28;20038;-23
2021/08/11 08:02:23;;;;;;;9.98;8.07;;;;;;;32.37;33.77;99986.84;5109519;28;20126;-22
2021/08/11 08:04:48;;;;;;;10.52;8.63;;;;;;;32.31;33.33;99977.25;5109601;28;20023;-22
2021/08/11 08:07:14;;;;;;;13.20;8.35;;;;;;;32.80;34.15;99976.50;5109539;28;20035;-23
2021/08/11 08:09:39;;;;;;;12.02;8.65;;;;;;;32.82;32.02;99976.13;5109507;28;20027;-23
2021/08/11 08:12:05;;;;;;;11.02;8.20;;;;;;;32.33;33.66;99966.66;5108985;28;20035;-22
2021/08/11 08:14:30;;;;;;;12.30;8.45;;;;;;;32.37;33.79;99970.28;5109825;28;20035;-23
2021/08/11 08:16:56;;;;;;;10.13;8.02;;;;;;;32.74;32.37;99963.38;5109254;28;20033;-23
2021/08/11 08:19:21;;;;;;;13.63;7.90;;;;;;;32.80;32.54;99965.44;5109075;28;20035;-22
2021/08/11 08:21:47;;;;;;;9.38;8.00;;;;;;;32.73;31.96;99959.81;5109274;28;20032;-23
2021/08/11 08:24:12;;;;;;;10.85;7.80;;;;;;;33.09;31.99;99954.81;5108769;28;20028;-23
2021/08/11 08:26:38;;;;;;;12.52;8.13;;;;;;;33.13;31.55;99949.34;5109020;28;20039;-23
2021/08/11 08:29:03;;;;;;;13.27;8.18;;;;;;;33.18;30.87;99955.34;5109148;28;20119;-23
2021/08/11 08:31:29;;;;;;;10.57;7.88;;;;;;;33.17;31.30;99959.28;5108958;28;20035;-22
2021/08/11 08:33:55;;;;;;;10.27;7.88;;;;;;;33.65;30.68;99952.38;5108883;28;20478;-22
2021/08/11 08:36:21;;;;;;;14.00;7.93;;;;;;;33.51;30.53;99939.97;5108886;28;20039;-23
2021/08/11 08:38:47;;;;;;;10.88;7.95;;;;;;;33.35;31.15;99939.38;5108875;28;20036;-23
2021/08/11 08:41:12;;;;;;;10.88;7.53;;;;;;;33.26;30.91;99942.41;5107992;28;20038;-23
2021/08/11 08:43:38;;;;;;;11.88;8.13;;;;;;;33.42;32.95;99933.91;5090714;28;20085;-22
2021/08/11 08:46:04;;;;;;;8.65;7.25;;;;;;;34.16;29.69;99938.69;5108843;28;20114;-22
2021/08/11 08:48:29;;;;;;;14.43;7.70;;;;;;;34.52;28.57;99936.19;5108621;28;20057;-22
2021/08/11 08:50:55;;;;;;;11.00;7.28;;;;;;;34.28;29.46;99934.81;5073738;28;20092;-22
2021/08/11 08:53:22;;;;;;;9.07;7.07;;;;;;;34.60;28.65;99929.50;5090564;28;20357;-23
2021/08/11 08:55:48;;;;;;;10.65;7.30;;;;;;;34.51;28.94;99923.53;5108691;28;20028;-22
2021/08/11 08:58:13;;;;;;;10.15;7.47;;;;;;;34.88;28.10;99919.81;5108059;28;20047;-22
2021/08/11 09:00:39;;;;;;;10.13;6.85;;;;;;;34.53;27.85;99920.34;5108498;28;20502;-23
2021/08/11 09:03:05;;;;;;;12.70;7.65;;;;;;;34.69;27.59;99909.03;5073456;28;20055;-22
2021/08/11 09:05:31;;;;;;;10.80;7.18;;;;;;;34.78;27.90;99903.94;5108270;28;20028;-23
2021/08/11 09:07:56;;;;;;;11.68;7.22;;;;;;;34.32;27.86;99905.19;5108181;28;20035;-23
2021/08/11 09:10:25;;;;;;;8.15;6.82;;;;;;;34.71;27.25;99904.69;5107962;28;20035;-23
2021/08/11 09:12:53;;;;;;;10.88;7.25;;;;;;;35.31;26.62;99908.13;5090089;28;20039;-22
2021/08/11 09:15:40;;;;;;;10.50;6.88;;;;;;;35.67;27.53;99905.50;5108017;28;20073;-22
2021/08/11 09:18:16;;;;;;;8.65;6.30;;;;;;;36.04;26.42;99902.34;5090488;28;20051;-23
2021/08/11 09:20:49;;;;;;;10.48;7.20;;;;;;;36.46;25.78;99888.88;5108067;28;20065;-22
2021/08/11 09:23:15;;;;;;;10.00;6.63;;;;;;;36.40;24.54;99892.03;5108028;28;20063;-22
2021/08/11 09:26:00;;;;;;;8.98;6.93;;;;;;;35.83;24.81;99885.72;5107624;28;20102;-23
2021/08/11 09:28:27;;;;;;;9.20;6.35;;;;;;;35.99;24.32;99870.25;5107984;28;20032;-22
2021/08/11 09:30:53;;;;;;;8.82;6.43;;;;;;;35.69;24.75;99869.84;5108244;28;20096;-23
2021/08/11 09:33:23;;;;;;;11.25;6.93;;;;;;;35.66;25.89;99881.72;5108339;28;20037;-23
2021/08/11 09:35:49;;;;;;;10.05;6.72;;;;;;;35.79;25.94;99860.72;5107833;28;20050;-22
2021/08/11 09:38:16;;;;;;;9.85;5.72;;;;;;;36.51;25.39;99863.47;5108242;28;20476;-22
2021/08/11 09:40:42;;;;;;;7.75;5.65;;;;;;;36.63;23.93;99876.94;5107918;28;20356;-23
2021/08/11 09:43:10;;;;;;;10.07;6.80;;;;;;;36.89;23.35;99867.34;5107950;28;20147;-22
2021/08/11 09:45:45;;;;;;;8.20;6.18;;;;;;;36.60;23.85;99870.19;5107776;28;20028;-22
2021/08/11 09:48:11;;;;;;;11.98;6.72;;;;;;;36.53;25.08;99858.28;5107393;28;20028;-22
2021/08/11 09:50:37;;;;;;;8.57;6.40;;;;;;;36.48;24.46;99864.28;5107578;28;20031;-23
2021/08/11 09:53:03;;;;;;;7.30;5.93;;;;;;;36.76;25.37;99847.56;5107482;28;20119;-23
2021/08/11 09:55:28;;;;;;;14.13;9.20;;;;;;;37.01;24.40;99857.75;5107579;28;20076;-23
2021/08/11 09:57:54;;;;;;;9.20;6.22;;;;;;;37.46;22.27;99832.13;5107568;28;20058;-23
2021/08/11 10:00:20;;;;;;;8.90;6.43;;;;;;;37.01;22.86;99846.66;5107022;28;20098;-23
2021/08/11 10:02:46;;;;;;;11.57;6.25;;;;;;;36.96;23.95;99849.84;5107607;28;20027;-23
2021/08/11 10:05:52;;;;;;;9.38;6.53;;;;;;;36.86;22.96;99845.13;5089287;28;20729;-23
2021/08/11 10:08:33;;;;;;;8.38;6.05;;;;;;;36.25;23.27;99834.16;5004920;28;20124;-22
2021/08/11 10:10:59;;;;;;;7.35;5.78;;;;;;;36.51;21.54;99838.47;5005146;28;20044;-23
2021/08/11 10:13:25;;;;;;;7.88;6.43;;;;;;;36.67;22.83;99833.28;5064551;28;20044;-22
2021/08/11 10:15:50;;;;;;;9.95;6.05;;;;;;;36.53;22.11;99831.31;5107507;28;20032;-22
2021/08/11 10:18:22;;;;;;;8.02;5.90;;;;;;;36.48;22.30;99825.41;5107392;28;20082;-22
2021/08/11 10:20:48;;;;;;;9.10;6.25;;;;;;;37.31;22.79;99826.66;5107426;28;20070;-22
2021/08/11 10:23:18;;;;;;;7.80;5.72;;;;;;;37.49;24.01;99820.16;5089178;28;20059;-22
2021/08/11 10:25:43;;;;;;;8.82;6.15;;;;;;;37.46;20.73;99827.34;5089263;28;20095;-22
2021/08/11 10:28:09;;;;;;;8.02;5.55;;;;;;;37.87;22.26;99823.84;5089085;28;20058;-22
2021/08/11 10:30:35;;;;;;;8.73;6.10;;;;;;;37.74;21.45;99820.00;5090037;28;20058;-22
2021/08/11 10:33:01;;;;;;;7.55;6.15;;;;;;;38.62;20.33;99819.56;5111496;28;20038;-22
2021/08/11 10:35:26;;;;;;;8.48;5.75;;;;;;;37.79;19.90;99811.22;5076287;28;20030;-22
2021/08/11 10:37:52;;;;;;;9.15;6.03;;;;;;;37.67;20.41;99817.28;5093288;28;20035;-22
2021/08/11 10:40:17;;;;;;;6.57;5.20;;;;;;;38.22;19.22;99810.81;5111020;28;20031;-22
2021/08/11 10:42:57;;;;;;;11.70;5.93;;;;;;;38.14;19.72;99812.09;5111174;28;20032;-22
2021/08/11 10:45:23;;;;;;;9.52;5.72;;;;;;;37.93;19.74;99805.50;5093417;28;20451;-22
2021/08/11 10:47:48;;;;;;;7.72;5.30;;;;;;;38.35;19.30;99806.31;5111298;28;20031;-23
2021/08/11 10:50:14;;;;;;;7.37;5.50;;;;;;;38.79;18.83;99804.59;5111074;28;20708;-22
2021/08/11 10:52:39;;;;;;;8.87;5.60;;;;;;;38.94;17.77;99793.25;5111100;28;20031;-22
2021/08/11 10:55:06;;;;;;;8.00;4.83;;;;;;;38.74;17.16;99790.34;5092461;28;20088;-22
2021/08/11 10:57:34;;;;;;;7.53;5.03;;;;;;;38.26;16.74;99780.94;5110458;28;20051;-22
2021/08/11 11:00:06;;;;;;;8.50;5.32;;;;;;;38.47;17.46;99779.91;5110683;28;20044;-22
2021/08/11 11:02:37;;;;;;;6.55;5.10;;;;;;;38.81;16.66;99772.75;5111037;28;20544;-22
2021/08/11 11:05:04;;;;;;;9.48;5.25;;;;;;;38.38;17.64;99772.06;5111006;28;20062;-22
2021/08/11 11:07:29;;;;;;;7.55;5.10;;;;;;;38.67;17.11;99765.38;5110926;28;20028;-22
2021/08/11 11:10:24;;;;;;;9.50;5.60;;;;;;;39.18;17.21;99764.25;5107407;28;20040;-23
2021/08/11 11:12:49;;;;;;;6.93;5.22;;;;;;;39.35;17.73;99764.38;5100352;28;20024;-22
2021/08/11 11:15:14;;;;;;;7.70;5.07;;;;;;;39.62;15.48;99758.00;5098469;28;20027;-23
2021/08/11 11:18:21;;;;;;;6.97;5.13;;;;;;;39.73;15.29;99753.03;5082387;28;20483;-23
2021/08/11 11:20:47;;;;;;;8.60;4.93;;;;;;;39.23;16.16;99754.59;5098219;28;20019;-23
2021/08/11 11:23:32;;;;;;;8.90;5.20;;;;;;;39.63;15.89;99754.78;5072030;28;20040;-22
2021/08/11 11:26:05;;;;;;;5.60;4.83;;;;;;;39.43;16.68;99746.34;5090154;28;20115;-22